Time;durP1;ratioP1;P1;durP2;ratioP2;P2;SDS_P1;SDS_P2;PMS_P1;PMS_P2;Temp;Humidity;BMP_temperature;BMP_pressure;BME280_temperature;BME280_humidity;BME280_pressure;Samples;Min_cycle;Max_cycle;Signal;HPM_P1;HPM_P2
2023/11/01 00:01:24;;;;;;;16.70;4.57;;;12.60;99.90;;;;;;5052789;28;38489;-75
2023/11/01 00:03:50;;;;;;;13.48;5.25;;;12.60;99.90;;;;;;5053203;28;38278;-74
2023/11/01 00:06:16;;;;;;;15.23;5.40;;;12.60;99.90;;;;;;5051466;28;39413;-74
2023/11/01 01:26:26;;;;;;;18.63;6.20;;;12.40;99.90;;;;;;5058904;28;47284;-74
2023/11/01 01:28:52;;;;;;;15.10;6.75;;;12.40;99.90;;;;;;5050668;28;37948;-74
2023/11/01 01:31:18;;;;;;;11.10;5.75;;;12.40;99.90;;;;;;5052038;28;39486;-75
2023/11/01 01:33:45;;;;;;;15.07;6.20;;;12.40;99.90;;;;;;5056660;28;37976;-75
2023/11/01 01:36:11;;;;;;;13.23;6.50;;;12.40;99.90;;;;;;5058413;28;37790;-74
2023/11/01 01:38:37;;;;;;;12.93;5.10;;;12.40;99.90;;;;;;5057549;28;37939;-74
2023/11/01 01:41:04;;;;;;;18.70;6.28;;;12.40;99.90;;;;;;5052416;28;38594;-75
2023/11/01 01:43:30;;;;;;;13.27;5.70;;;12.40;99.90;;;;;;5058787;28;38102;-74
2023/11/01 01:46:07;;;;;;;13.85;5.90;;;12.40;99.90;;;;;;5058837;28;36866;-75
2023/11/01 01:48:35;;;;;;;12.30;4.88;;;12.40;99.90;;;;;;5051104;28;46632;-75
2023/11/01 01:51:03;;;;;;;15.75;5.28;;;12.40;99.90;;;;;;5052706;28;37734;-74
2023/11/01 01:53:32;;;;;;;15.45;4.93;;;12.40;99.90;;;;;;5056007;28;37273;-75
2023/11/01 01:55:59;;;;;;;16.15;5.13;;;12.40;99.90;;;;;;5057994;28;37491;-74
2023/11/01 01:58:27;;;;;;;14.38;5.18;;;12.40;99.90;;;;;;5049854;28;37954;-75
2023/11/01 02:03:29;;;;;;;14.85;3.88;;;12.30;99.90;;;;;;5218771;22;20045;-75
2023/11/01 02:05:58;;;;;;;8.07;3.70;;;12.40;99.90;;;;;;5041177;28;36423;-76
2023/11/01 02:08:25;;;;;;;12.73;3.67;;;12.30;99.90;;;;;;5040642;28;37065;-75
2023/11/01 02:10:52;;;;;;;10.18;3.20;;;12.30;99.90;;;;;;5044039;28;38813;-75
2023/11/01 02:13:18;;;;;;;10.25;3.17;;;12.30;99.90;;;;;;5039929;28;38388;-75
2023/11/01 02:15:45;;;;;;;15.30;3.60;;;12.30;99.90;;;;;;5046435;28;37154;-76
2023/11/01 02:18:12;;;;;;;10.70;2.72;;;12.30;99.90;;;;;;5046569;28;37341;-75
2023/11/01 02:20:40;;;;;;;11.50;3.15;;;12.30;99.90;;;;;;5031266;28;37388;-75
2023/11/01 02:23:08;;;;;;;10.15;3.50;;;12.30;99.90;;;;;;5045106;28;37696;-74
2023/11/01 02:25:34;;;;;;;8.88;3.25;;;12.30;99.90;;;;;;5055919;28;36999;-75
2023/11/01 02:28:02;;;;;;;13.10;3.47;;;12.30;99.90;;;;;;5048876;28;39379;-76
2023/11/01 02:30:28;;;;;;;12.77;4.05;;;12.30;99.90;;;;;;5040594;28;47041;-76
2023/11/01 02:32:54;;;;;;;14.77;5.70;;;12.30;99.90;;;;;;5036473;28;37551;-74
2023/11/01 02:35:20;;;;;;;13.55;5.85;;;12.30;99.90;;;;;;5038830;28;37682;-75
2023/11/01 02:37:49;;;;;;;11.45;6.32;;;12.30;99.90;;;;;;5036693;28;38299;-75
2023/11/01 02:40:16;;;;;;;15.70;7.90;;;12.30;99.90;;;;;;5042903;28;37486;-77
2023/11/01 02:42:44;;;;;;;18.17;8.82;;;12.30;99.90;;;;;;5033498;28;37653;-75
2023/11/01 02:45:11;;;;;;;16.67;9.52;;;12.30;99.90;;;;;;5040246;28;36108;-75
2023/11/01 02:47:41;;;;;;;17.40;8.55;;;12.30;99.90;;;;;;5045396;28;38676;-76
2023/11/01 02:50:14;;;;;;;15.23;8.80;;;12.30;99.90;;;;;;5039590;28;37625;-76
2023/11/01 02:52:40;;;;;;;15.48;9.30;;;12.30;99.90;;;;;;5053000;28;38506;-76
2023/11/01 02:55:11;;;;;;;16.85;11.07;;;12.30;99.90;;;;;;5037103;28;38941;-76
2023/11/01 02:57:38;;;;;;;18.25;12.15;;;12.30;99.90;;;;;;5039531;28;39461;-75
2023/11/01 03:00:06;;;;;;;19.52;11.07;;;12.30;99.90;;;;;;5038944;28;39807;-75
2023/11/01 03:02:36;;;;;;;16.73;10.32;;;12.30;99.90;;;;;;5039780;28;38224;-75
2023/11/01 03:05:04;;;;;;;15.35;10.40;;;12.30;99.90;;;;;;5043542;28;36296;-75
2023/11/01 03:07:31;;;;;;;18.60;12.18;;;12.30;99.90;;;;;;5039206;28;48603;-76
2023/11/01 03:09:57;;;;;;;22.42;12.23;;;12.30;99.90;;;;;;5039454;28;40698;-73
2023/11/01 03:12:23;;;;;;;21.48;13.43;;;12.30;99.90;;;;;;5036316;28;38241;-76
2023/11/01 03:14:49;;;;;;;19.73;12.50;;;12.30;99.90;;;;;;5039984;28;37043;-76
2023/11/01 03:17:16;;;;;;;21.13;12.88;;;12.30;99.90;;;;;;5040865;28;39122;-75
2023/11/01 03:19:45;;;;;;;20.55;13.88;;;12.30;99.90;;;;;;5041399;28;38466;-75
2023/11/01 03:22:11;;;;;;;22.42;13.57;;;12.30;99.90;;;;;;5037042;28;37533;-75
2023/11/01 03:24:37;;;;;;;21.63;14.20;;;12.30;99.90;;;;;;5039656;28;38146;-76
2023/11/01 03:27:03;;;;;;;19.98;12.32;;;12.20;99.90;;;;;;5037652;28;39240;-75
2023/11/01 03:29:29;;;;;;;17.85;11.98;;;12.20;99.90;;;;;;5041158;28;37664;-75
2023/11/01 03:31:55;;;;;;;19.80;12.40;;;12.20;99.90;;;;;;5034961;28;37757;-75
2023/11/01 03:34:24;;;;;;;14.25;11.18;;;12.20;99.90;;;;;;5045479;28;37763;-75
2023/11/01 03:36:50;;;;;;;17.40;12.40;;;12.20;99.90;;;;;;5038635;28;38020;-76
2023/11/01 03:39:17;;;;;;;16.75;11.80;;;12.30;99.90;;;;;;5034809;28;40587;-78
2023/11/01 03:41:44;;;;;;;20.88;11.95;;;12.20;99.90;;;;;;5041769;28;37655;-76
2023/11/01 03:44:10;;;;;;;19.92;12.07;;;12.30;99.90;;;;;;5040098;28;36149;-75
2023/11/01 03:46:36;;;;;;;15.00;12.20;;;12.30;99.90;;;;;;5044743;28;38059;-75
2023/11/01 03:49:02;;;;;;;17.30;13.45;;;12.30;99.90;;;;;;5043857;28;40267;-75
2023/11/01 03:51:29;;;;;;;19.67;13.65;;;12.40;99.90;;;;;;5037549;28;37833;-75
2023/11/01 03:53:55;;;;;;;21.48;14.55;;;12.30;99.90;;;;;;5039726;28;38045;-75
2023/11/01 03:56:22;;;;;;;18.90;14.95;;;12.40;99.90;;;;;;5035126;28;37539;-75
2023/11/01 03:58:48;;;;;;;15.40;13.15;;;12.40;99.90;;;;;;5042819;28;38312;-75
2023/11/01 04:01:15;;;;;;;20.75;14.70;;;12.50;99.90;;;;;;5042382;28;39274;-75
2023/11/01 04:03:41;;;;;;;19.08;15.23;;;12.50;99.90;;;;;;5038945;28;37981;-75
2023/11/01 04:06:09;;;;;;;24.40;16.58;;;12.50;99.90;;;;;;5044020;28;38633;-76
2023/11/01 04:08:37;;;;;;;22.67;16.75;;;12.60;99.90;;;;;;5037144;28;38018;-75
2023/11/01 04:11:04;;;;;;;30.75;17.55;;;12.60;99.90;;;;;;5039639;28;37432;-75
2023/11/01 04:13:31;;;;;;;23.20;17.40;;;12.60;99.90;;;;;;5036169;28;38780;-75
2023/11/01 04:16:00;;;;;;;24.30;17.27;;;12.60;99.90;;;;;;5037456;28;40648;-76
2023/11/01 04:18:26;;;;;;;26.40;16.38;;;12.60;99.90;;;;;;5035687;28;38417;-75
2023/11/01 04:20:52;;;;;;;20.65;16.63;;;12.70;99.90;;;;;;5044710;28;38413;-75
2023/11/01 04:23:19;;;;;;;30.02;18.27;;;12.70;99.90;;;;;;5038022;28;36365;-76
2023/11/01 04:25:45;;;;;;;23.75;16.77;;;12.70;99.90;;;;;;5036252;28;39370;-76
2023/11/01 04:28:11;;;;;;;23.42;16.15;;;12.80;99.90;;;;;;5037428;28;38670;-75
2023/11/01 04:30:39;;;;;;;19.05;14.30;;;12.80;99.90;;;;;;5036689;28;39706;-76
2023/11/01 04:33:10;;;;;;;20.27;13.32;;;12.80;99.90;;;;;;5026807;28;37290;-75
2023/11/01 04:35:36;;;;;;;17.55;11.15;;;12.80;99.90;;;;;;5028976;28;39334;-76
2023/11/01 04:38:02;;;;;;;16.30;9.93;;;12.90;99.90;;;;;;5028162;28;38558;-76
2023/11/01 04:40:29;;;;;;;9.95;7.90;;;12.90;99.90;;;;;;5028370;28;38221;-75
2023/11/01 04:42:55;;;;;;;14.32;8.25;;;13.00;99.90;;;;;;5038170;28;38204;-75
2023/11/01 04:45:21;;;;;;;14.30;7.85;;;13.10;99.90;;;;;;5037694;28;38528;-76
2023/11/01 04:47:47;;;;;;;11.13;5.53;;;13.10;99.90;;;;;;5045414;28;38772;-76
2023/11/01 04:50:15;;;;;;;11.88;6.35;;;13.10;99.90;;;;;;5045039;28;38729;-76
2023/11/01 04:52:42;;;;;;;15.68;6.35;;;13.20;99.90;;;;;;5037259;28;38973;-76
2023/11/01 04:55:12;;;;;;;14.10;6.30;;;13.20;99.90;;;;;;5042920;28;38550;-76
2023/11/01 04:57:38;;;;;;;15.38;7.80;;;13.20;99.90;;;;;;5046327;28;38475;-76
2023/11/01 05:00:08;;;;;;;17.77;7.05;;;13.20;99.90;;;;;;5049467;28;39104;-75
2023/11/01 05:02:41;;;;;;;16.33;6.93;;;13.20;99.90;;;;;;5039617;28;36754;-75
2023/11/01 05:05:08;;;;;;;21.45;7.97;;;13.20;99.90;;;;;;5043453;28;38468;-75
2023/11/01 05:07:35;;;;;;;28.27;7.30;;;13.20;99.90;;;;;;5057454;28;37803;-75
2023/11/01 05:10:05;;;;;;;20.55;6.88;;;13.20;99.90;;;;;;5056650;28;37809;-76
2023/11/01 05:12:31;;;;;;;17.92;5.47;;;13.20;99.90;;;;;;5042234;28;47231;-76
2023/11/01 05:14:58;;;;;;;22.58;5.88;;;13.30;99.90;;;;;;5039408;28;38476;-75
2023/11/01 05:17:24;;;;;;;25.08;5.38;;;13.30;99.90;;;;;;5035632;28;37820;-75
2023/11/01 05:19:50;;;;;;;20.55;5.10;;;13.30;99.90;;;;;;5038245;28;39086;-76
2023/11/01 05:22:16;;;;;;;24.15;4.90;;;13.30;99.90;;;;;;5038557;28;37186;-74
2023/11/01 05:24:49;;;;;;;16.67;4.88;;;13.30;99.90;;;;;;5038065;28;38218;-74
2023/11/01 05:27:15;;;;;;;22.38;4.25;;;13.30;99.90;;;;;;5038310;28;38457;-75
2023/11/01 05:29:41;;;;;;;21.52;5.20;;;13.30;99.90;;;;;;5041034;28;37789;-75
2023/11/01 05:32:08;;;;;;;18.00;4.38;;;13.30;99.90;;;;;;5037233;28;35983;-75
2023/11/01 05:34:35;;;;;;;15.65;4.75;;;13.30;99.90;;;;;;5041070;28;38316;-76
2023/11/01 05:37:01;;;;;;;27.85;5.22;;;13.30;99.90;;;;;;5040564;28;40821;-75
2023/11/01 05:39:27;;;;;;;20.90;5.20;;;13.30;99.90;;;;;;5043569;28;48848;-74
2023/11/01 05:41:53;;;;;;;20.98;4.35;;;13.40;99.90;;;;;;5043144;28;36911;-75
2023/11/01 05:44:19;;;;;;;18.20;4.00;;;13.40;99.90;;;;;;5042371;28;38659;-74
2023/11/01 05:46:46;;;;;;;25.30;5.13;;;13.30;99.90;;;;;;5041419;28;37379;-74
2023/11/01 05:49:14;;;;;;;18.10;5.00;;;13.30;99.90;;;;;;5044926;28;39016;-73
2023/11/01 05:51:41;;;;;;;29.40;4.88;;;13.30;99.90;;;;;;5035817;28;35918;-76
2023/11/01 05:54:07;;;;;;;19.45;4.10;;;13.30;99.90;;;;;;5036298;28;40284;-74
2023/11/01 05:56:33;;;;;;;16.60;4.00;;;13.30;99.90;;;;;;5037422;28;39210;-73
2023/11/01 05:58:59;;;;;;;17.17;3.70;;;13.30;99.90;;;;;;5042449;28;38489;-74
2023/11/01 06:01:25;;;;;;;26.73;4.88;;;13.30;99.90;;;;;;5039698;28;36292;-75
2023/11/01 06:03:56;;;;;;;22.40;3.78;;;13.30;99.90;;;;;;5035717;28;38138;-75
2023/11/01 06:06:25;;;;;;;21.25;4.05;;;13.30;99.90;;;;;;5043878;28;38976;-75
2023/11/01 06:08:52;;;;;;;15.68;3.47;;;13.30;99.90;;;;;;5034868;28;38550;-75
2023/11/01 06:11:19;;;;;;;23.42;4.03;;;13.30;99.90;;;;;;5044862;28;36440;-75
2023/11/01 06:13:45;;;;;;;16.95;3.55;;;13.30;99.90;;;;;;5033941;28;39392;-75
2023/11/01 06:16:12;;;;;;;20.70;4.05;;;13.30;99.90;;;;;;5039083;28;37857;-75
2023/11/01 06:18:38;;;;;;;15.85;3.63;;;13.30;99.90;;;;;;5038567;28;37827;-74
2023/11/01 06:21:08;;;;;;;21.20;3.92;;;13.30;99.90;;;;;;5037251;28;36753;-75
2023/11/01 06:23:37;;;;;;;15.68;3.70;;;13.30;99.90;;;;;;5039211;28;38169;-75
2023/11/01 06:26:04;;;;;;;17.98;4.63;;;13.30;99.90;;;;;;5035998;28;37705;-75
2023/11/01 06:28:31;;;;;;;21.73;3.75;;;13.30;99.90;;;;;;5034511;28;38300;-74
2023/11/01 06:30:57;;;;;;;16.45;3.47;;;13.30;99.90;;;;;;5037592;28;35958;-75
2023/11/01 06:33:23;;;;;;;14.63;3.42;;;13.30;99.90;;;;;;5037142;28;38435;-75
2023/11/01 06:35:49;;;;;;;21.13;3.85;;;13.30;99.90;;;;;;5042049;28;39375;-73
2023/11/01 06:38:15;;;;;;;17.08;3.60;;;13.30;99.90;;;;;;5043150;28;37431;-74
2023/11/01 06:40:41;;;;;;;20.83;4.22;;;13.30;99.90;;;;;;5044711;28;37863;-76
2023/11/01 06:43:08;;;;;;;18.10;3.03;;;13.30;99.90;;;;;;5046838;28;37502;-74
2023/11/01 06:45:35;;;;;;;17.70;3.90;;;13.30;99.90;;;;;;5042683;28;38446;-74
2023/11/01 06:48:01;;;;;;;21.95;3.28;;;13.30;99.90;;;;;;5046276;28;39469;-74
2023/11/01 06:50:28;;;;;;;20.35;3.85;;;13.30;99.90;;;;;;5035211;28;46882;-75
2023/11/01 06:52:54;;;;;;;12.40;3.03;;;13.20;99.90;;;;;;5053754;28;38675;-76
2023/11/01 06:55:20;;;;;;;14.48;3.65;;;13.20;99.90;;;;;;5032241;28;37888;-73
2023/11/01 06:57:46;;;;;;;16.83;3.88;;;13.20;99.90;;;;;;5032142;28;38344;-74
2023/11/01 07:00:13;;;;;;;18.10;4.03;;;13.10;99.90;;;;;;5037212;28;38485;-74
2023/11/01 07:02:39;;;;;;;19.73;3.95;;;13.20;99.90;;;;;;5030021;28;39405;-74
2023/11/01 07:05:05;;;;;;;17.05;3.85;;;13.20;99.90;;;;;;5028599;28;38828;-74
2023/11/01 07:07:32;;;;;;;18.73;4.45;;;13.20;99.90;;;;;;5036037;28;39178;-74
2023/11/01 07:09:59;;;;;;;18.08;3.90;;;13.30;99.90;;;;;;5032255;28;36064;-73
2023/11/01 07:12:25;;;;;;;15.57;3.67;;;13.30;99.90;;;;;;5033713;28;38001;-73
2023/11/01 07:14:52;;;;;;;22.58;3.85;;;13.30;99.90;;;;;;5032320;28;39490;-74
2023/11/01 07:17:18;;;;;;;15.48;3.00;;;13.30;99.90;;;;;;5024920;28;37358;-73
2023/11/01 07:19:44;;;;;;;16.88;3.03;;;13.30;99.90;;;;;;5034940;28;36208;-74
2023/11/01 07:22:11;;;;;;;16.58;4.15;;;13.30;99.90;;;;;;5040983;28;37542;-73
2023/11/01 07:24:37;;;;;;;23.15;3.60;;;13.30;99.90;;;;;;5032049;28;37801;-73
2023/11/01 07:27:03;;;;;;;16.45;3.28;;;13.40;99.90;;;;;;5034329;28;37183;-74
2023/11/01 07:29:29;;;;;;;19.52;3.38;;;13.40;99.90;;;;;;5038340;28;36217;-75
2023/11/01 07:31:55;;;;;;;17.65;3.22;;;13.40;99.90;;;;;;5033327;28;36998;-74
2023/11/01 07:34:22;;;;;;;15.80;3.40;;;13.40;99.90;;;;;;5038982;28;38115;-74
2023/11/01 07:36:48;;;;;;;21.48;4.13;;;13.40;99.90;;;;;;5032734;28;38672;-75
2023/11/01 07:39:14;;;;;;;10.57;3.00;;;13.40;99.90;;;;;;5040414;28;37735;-75
2023/11/01 07:41:40;;;;;;;18.27;4.63;;;13.50;99.90;;;;;;5038789;28;39323;-75
2023/11/01 07:44:06;;;;;;;19.63;3.22;;;13.50;99.90;;;;;;5035844;28;38115;-75
2023/11/01 07:46:32;;;;;;;17.42;2.97;;;13.50;99.90;;;;;;5029522;28;37390;-75
2023/11/01 07:48:58;;;;;;;22.13;3.80;;;13.50;99.90;;;;;;5034780;28;37013;-74
2023/11/01 07:51:24;;;;;;;19.13;3.05;;;13.60;99.90;;;;;;5035155;28;38337;-74
2023/11/01 07:53:51;;;;;;;17.25;2.78;;;13.60;99.90;;;;;;5025304;28;38214;-74
2023/11/01 07:56:17;;;;;;;20.42;2.90;;;13.60;99.90;;;;;;5025010;28;39063;-74
2023/11/01 07:58:43;;;;;;;20.10;3.05;;;13.60;99.90;;;;;;5025050;28;39673;-75
2023/11/01 08:01:09;;;;;;;18.67;2.45;;;13.60;99.90;;;;;;5026063;28;37365;-74
2023/11/01 08:03:36;;;;;;;17.08;2.85;;;13.70;99.90;;;;;;5022707;28;39474;-74
2023/11/01 08:06:03;;;;;;;14.10;2.88;;;13.60;99.90;;;;;;5024857;28;38293;-74
2023/11/01 08:08:29;;;;;;;15.13;2.63;;;13.70;99.90;;;;;;5022827;28;36131;-75
2023/11/01 08:10:56;;;;;;;17.65;3.35;;;13.70;99.90;;;;;;5029972;28;20049;-74
2023/11/01 08:13:22;;;;;;;20.73;3.10;;;13.70;99.90;;;;;;5030057;28;38773;-74
2023/11/01 08:15:49;;;;;;;24.00;3.05;;;13.80;99.90;;;;;;5025934;28;38522;-73
2023/11/01 08:18:15;;;;;;;12.77;2.42;;;13.80;99.90;;;;;;5023623;28;37071;-74
2023/11/01 08:20:42;;;;;;;11.82;2.70;;;13.80;99.90;;;;;;5027536;28;40098;-74
2023/11/01 08:23:08;;;;;;;19.40;3.80;;;13.90;99.90;;;;;;5022658;28;41179;-75
2023/11/01 08:25:34;;;;;;;9.90;2.55;;;13.90;99.90;;;;;;5027838;28;37549;-75
2023/11/01 08:28:00;;;;;;;21.60;2.97;;;13.90;99.90;;;;;;5031759;28;37818;-74
2023/11/01 08:30:26;;;;;;;19.95;3.13;;;13.90;99.90;;;;;;5032101;28;48758;-73
2023/11/01 08:32:52;;;;;;;12.18;2.42;;;14.00;99.90;;;;;;5025417;28;39774;-74
2023/11/01 08:35:18;;;;;;;14.23;2.88;;;14.00;99.90;;;;;;5027994;28;38557;-74
2023/11/01 08:37:44;;;;;;;19.52;3.10;;;14.00;99.90;;;;;;5029989;28;36560;-74
2023/11/01 08:40:11;;;;;;;11.63;2.40;;;14.00;99.90;;;;;;5030364;28;37383;-74
2023/11/01 08:42:37;;;;;;;15.82;2.65;;;14.10;99.90;;;;;;5046675;28;39281;-74
2023/11/01 08:45:04;;;;;;;16.40;3.03;;;14.00;99.90;;;;;;5036709;28;37367;-74
2023/11/01 08:47:44;;;;;;;13.85;2.85;;;14.10;99.90;;;;;;5041455;28;47194;-74
2023/11/01 08:50:12;;;;;;;15.43;2.63;;;14.20;99.90;;;;;;5030349;28;39131;-74
2023/11/01 08:52:43;;;;;;;15.20;2.65;;;14.20;99.90;;;;;;5028966;28;37995;-74
2023/11/01 08:55:13;;;;;;;14.25;2.33;;;14.20;99.90;;;;;;5031782;28;41273;-75
2023/11/01 08:57:44;;;;;;;15.43;2.17;;;14.30;99.90;;;;;;5035466;28;37288;-75
2023/11/01 09:00:13;;;;;;;11.43;2.60;;;14.30;99.90;;;;;;5031010;28;38549;-75
2023/11/01 09:02:40;;;;;;;17.08;2.70;;;14.30;99.90;;;;;;5031278;28;36596;-75
2023/11/01 09:05:06;;;;;;;14.20;2.30;;;14.40;99.90;;;;;;5030448;28;37562;-75
2023/11/01 09:07:32;;;;;;;11.13;2.25;;;14.40;99.90;;;;;;5032207;28;40153;-75
2023/11/01 09:09:58;;;;;;;16.45;2.53;;;14.40;99.90;;;;;;5034301;28;37815;-75
2023/11/01 09:12:24;;;;;;;17.73;3.03;;;14.40;99.90;;;;;;5032622;28;39215;-75
2023/11/01 09:14:51;;;;;;;11.52;2.40;;;14.50;99.90;;;;;;5037434;28;38456;-74
2023/11/01 09:17:17;;;;;;;17.90;2.88;;;14.50;99.90;;;;;;5039078;28;37018;-75
2023/11/01 09:19:43;;;;;;;12.50;2.55;;;14.50;99.90;;;;;;5033675;28;40053;-75
2023/11/01 09:22:09;;;;;;;17.40;2.60;;;14.50;99.90;;;;;;5030509;28;38442;-73
2023/11/01 09:24:36;;;;;;;11.38;2.33;;;14.50;99.90;;;;;;5035860;28;38731;-74
2023/11/01 09:27:03;;;;;;;9.60;2.58;;;14.50;99.90;;;;;;5036278;28;36288;-75
2023/11/01 09:29:29;;;;;;;11.88;3.35;;;14.50;99.90;;;;;;5034752;28;40004;-74
2023/11/01 09:31:55;;;;;;;12.27;2.72;;;14.50;99.90;;;;;;5037796;28;37625;-74
2023/11/01 09:34:23;;;;;;;10.48;1.92;;;14.60;99.90;;;;;;5035587;28;37237;-75
2023/11/01 09:36:49;;;;;;;10.00;2.05;;;14.60;99.90;;;;;;5035109;28;36785;-74
2023/11/01 09:39:15;;;;;;;10.20;2.28;;;14.50;99.90;;;;;;5040137;28;38705;-74
2023/11/01 09:41:48;;;;;;;16.13;2.42;;;14.50;99.90;;;;;;5043674;28;40068;-74
2023/11/01 09:44:17;;;;;;;14.52;2.33;;;14.50;99.90;;;;;;5038451;28;38116;-73
2023/11/01 09:46:44;;;;;;;16.27;3.40;;;14.50;99.90;;;;;;5044110;28;36402;-75
2023/11/01 09:49:11;;;;;;;14.25;2.22;;;14.50;99.90;;;;;;5040377;28;39467;-74
2023/11/01 09:51:38;;;;;;;14.50;2.47;;;14.50;99.90;;;;;;5040619;28;40380;-74
2023/11/01 09:54:05;;;;;;;12.73;2.40;;;14.50;99.90;;;;;;5042092;28;38282;-74
2023/11/01 09:56:33;;;;;;;10.40;2.25;;;14.50;99.90;;;;;;5049372;28;36468;-75
2023/11/01 09:59:03;;;;;;;17.80;2.75;;;14.50;99.90;;;;;;5027748;28;38377;-74
2023/11/01 10:01:30;;;;;;;13.80;2.85;;;14.50;99.90;;;;;;5035249;28;47494;-74
2023/11/01 10:03:57;;;;;;;12.25;2.50;;;14.50;99.90;;;;;;5038859;28;38918;-74
2023/11/01 10:06:26;;;;;;;13.45;2.03;;;14.50;99.90;;;;;;5032779;28;35122;-74
2023/11/01 10:08:53;;;;;;;6.82;1.80;;;14.50;99.90;;;;;;5035864;28;41011;-74
2023/11/01 10:11:20;;;;;;;11.13;2.00;;;14.50;99.90;;;;;;5036253;28;39672;-75
2023/11/01 10:13:49;;;;;;;8.48;2.45;;;14.50;99.90;;;;;;5039474;28;37704;-74
2023/11/01 10:16:15;;;;;;;13.18;3.03;;;14.50;99.90;;;;;;5038248;28;36771;-74
2023/11/01 10:18:43;;;;;;;20.30;2.78;;;14.50;99.90;;;;;;5042770;28;38675;-74
2023/11/01 10:21:09;;;;;;;12.02;2.20;;;14.50;99.90;;;;;;5046458;28;38210;-76
2023/11/01 10:23:36;;;;;;;10.93;2.28;;;14.40;99.90;;;;;;5030707;28;38034;-75
2023/11/01 10:26:04;;;;;;;12.25;2.15;;;14.30;99.90;;;;;;5040872;28;40179;-75
2023/11/01 10:28:39;;;;;;;13.02;2.42;;;14.30;99.90;;;;;;5039165;28;38537;-78
2023/11/01 10:31:06;;;;;;;8.32;1.90;;;14.30;99.90;;;;;;5046408;28;39584;-76
2023/11/01 10:33:33;;;;;;;9.65;1.95;;;14.30;99.90;;;;;;5043386;28;35963;-75
2023/11/01 10:36:00;;;;;;;14.95;2.15;;;14.40;99.90;;;;;;5048400;28;36291;-75
2023/11/01 10:38:28;;;;;;;10.05;2.38;;;14.40;99.90;;;;;;5043006;28;38315;-76
2023/11/01 10:41:03;;;;;;;12.85;2.20;;;14.40;99.90;;;;;;5041642;28;40130;-75
2023/11/01 10:43:30;;;;;;;13.25;1.98;;;14.50;99.90;;;;;;5040094;28;47168;-75
2023/11/01 10:45:59;;;;;;;10.80;1.98;;;14.60;99.90;;;;;;5044101;28;36937;-77
2023/11/01 10:48:25;;;;;;;13.32;2.10;;;14.60;99.90;;;;;;5059930;28;37119;-76
2023/11/01 10:50:55;;;;;;;11.63;2.15;;;14.60;99.90;;;;;;5041449;28;37645;-76
2023/11/01 10:53:24;;;;;;;15.73;2.17;;;14.70;99.90;;;;;;5041249;28;39392;-78
2023/11/01 10:55:51;;;;;;;14.15;2.92;;;14.80;99.90;;;;;;5039820;28;35583;-75
2023/11/01 10:58:27;;;;;;;12.30;2.78;;;14.90;99.90;;;;;;5037445;28;38907;-76
2023/11/01 11:01:15;;;;;;;10.27;2.08;;;14.90;99.90;;;;;;5034454;28;39982;-76
2023/11/01 11:04:02;;;;;;;6.93;1.83;;;15.00;99.90;;;;;;5035090;28;47304;-76
2023/11/01 11:06:50;;;;;;;6.72;1.65;;;15.00;99.90;;;;;;5038078;28;47286;-74
2023/11/01 11:09:24;;;;;;;12.82;2.58;;;15.00;99.90;;;;;;5039116;28;38685;-74
2023/11/01 11:12:19;;;;;;;10.35;1.92;;;15.00;99.90;;;;;;5035128;28;37996;-74
2023/11/01 11:14:46;;;;;;;8.60;2.08;;;15.10;99.90;;;;;;5034374;28;48065;-74
2023/11/01 11:17:15;;;;;;;9.38;1.67;;;15.20;99.90;;;;;;5037842;28;37887;-74
2023/11/01 11:20:13;;;;;;;7.72;1.85;;;15.20;99.90;;;;;;5039091;28;39172;-74
2023/11/01 11:22:58;;;;;;;6.72;1.55;;;15.30;99.90;;;;;;5036210;28;48089;-83
2023/11/01 11:25:45;;;;;;;15.52;2.35;;;15.40;99.90;;;;;;5040651;28;38873;-74
2023/11/01 11:28:18;;;;;;;12.38;2.00;;;15.40;99.90;;;;;;5039752;28;36023;-74
2023/11/01 11:30:45;;;;;;;12.27;2.10;;;15.40;99.90;;;;;;5042017;28;38673;-74
2023/11/01 11:33:11;;;;;;;8.75;2.08;;;15.50;99.90;;;;;;5039638;28;39617;-74
2023/11/01 11:35:38;;;;;;;6.50;1.40;;;15.60;99.90;;;;;;5038920;28;37848;-73
2023/11/01 11:38:30;;;;;;;6.25;1.63;;;15.50;99.90;;;;;;5036482;28;37493;-75
2023/11/01 11:41:33;;;;;;;12.32;1.85;;;15.60;99.90;;;;;;5045352;28;40821;-74
2023/11/01 11:44:13;;;;;;;10.32;1.85;;;15.70;99.90;;;;;;5060149;28;47280;-75
2023/11/01 11:46:48;;;;;;;8.82;1.60;;;15.80;99.90;;;;;;5041451;28;47215;-73
2023/11/01 11:49:21;;;;;;;9.07;2.05;;;15.80;99.90;;;;;;5037353;28;37067;-75
2023/11/01 11:51:54;;;;;;;9.80;1.98;;;15.80;99.90;;;;;;5034051;28;38661;-74
2023/11/01 11:54:25;;;;;;;9.15;1.63;;;15.80;99.90;;;;;;5032949;28;39842;-75
2023/11/01 11:56:56;;;;;;;9.88;2.20;;;15.70;99.90;;;;;;5050391;28;37452;-73
2023/11/01 11:59:24;;;;;;;9.40;2.05;;;15.70;99.90;;;;;;5039116;28;37131;-74
2023/11/01 12:01:52;;;;;;;5.50;1.67;;;15.60;99.90;;;;;;5031788;28;39176;-74
2023/11/01 12:04:19;;;;;;;9.57;1.73;;;15.50;99.90;;;;;;5036240;28;38042;-75
2023/11/01 12:06:50;;;;;;;7.40;1.88;;;15.50;99.90;;;;;;5040485;28;38267;-74
2023/11/01 12:09:21;;;;;;;12.02;1.55;;;15.50;99.90;;;;;;5047871;28;37498;-75
2023/11/01 12:11:51;;;;;;;6.35;1.40;;;15.60;99.90;;;;;;5050022;28;38277;-74
2023/11/01 12:14:22;;;;;;;11.98;2.35;;;15.60;99.90;;;;;;5039162;28;38418;-75
2023/11/01 12:16:50;;;;;;;8.27;1.40;;;15.60;99.90;;;;;;5044188;28;37667;-75
2023/11/01 12:19:18;;;;;;;6.93;1.75;;;15.70;99.90;;;;;;5054912;28;37305;-76
2023/11/01 12:21:58;;;;;;;7.22;1.10;;;15.70;99.90;;;;;;5041112;28;40065;-74
2023/11/01 12:24:37;;;;;;;9.07;1.40;;;15.70;99.90;;;;;;5034824;28;36692;-75
2023/11/01 12:27:18;;;;;;;7.72;1.98;;;15.70;99.90;;;;;;5041434;28;37530;-75
2023/11/01 12:29:51;;;;;;;7.45;1.60;;;15.60;99.90;;;;;;5040140;28;37364;-74
2023/11/01 12:32:38;;;;;;;7.28;1.70;;;15.60;99.90;;;;;;5035948;28;39879;-75
2023/11/01 12:35:06;;;;;;;10.48;1.67;;;15.60;99.90;;;;;;5032659;28;40266;-75
2023/11/01 12:37:34;;;;;;;7.95;1.92;;;15.60;99.90;;;;;;5035383;28;37393;-74
2023/11/01 12:40:05;;;;;;;12.10;2.03;;;15.60;99.90;;;;;;5033890;28;37689;-75
2023/11/01 12:42:34;;;;;;;5.82;1.10;;;15.60;99.90;;;;;;5034500;28;47015;-76
2023/11/01 12:45:03;;;;;;;8.25;1.50;;;15.70;99.90;;;;;;5032983;28;39099;-75
2023/11/01 12:47:50;;;;;;;7.47;1.58;;;15.70;99.90;;;;;;5052412;28;38832;-75
2023/11/01 12:50:22;;;;;;;3.90;1.27;;;15.70;99.90;;;;;;5033134;28;35261;-75
2023/11/01 12:52:48;;;;;;;5.38;1.35;;;15.70;99.90;;;;;;5027419;28;39117;-75
2023/11/01 12:55:15;;;;;;;6.68;1.40;;;15.70;99.90;;;;;;5034360;28;39847;-74
2023/11/01 12:57:46;;;;;;;7.07;2.00;;;15.70;99.90;;;;;;5038342;28;37137;-74
2023/11/01 13:00:14;;;;;;;4.57;1.30;;;15.60;99.90;;;;;;5041325;28;38504;-75
2023/11/01 13:02:40;;;;;;;7.28;1.75;;;15.60;99.90;;;;;;5039229;28;38695;-76
2023/11/01 13:05:07;;;;;;;5.47;1.50;;;15.50;99.90;;;;;;5037886;28;37798;-75
2023/11/01 13:07:34;;;;;;;5.55;1.50;;;15.40;99.90;;;;;;5042803;28;37274;-74
2023/11/01 13:10:00;;;;;;;5.80;1.25;;;15.50;99.90;;;;;;5034533;28;36199;-75
2023/11/01 13:12:27;;;;;;;5.95;1.30;;;15.50;99.90;;;;;;5041596;28;38353;-75
2023/11/01 13:14:54;;;;;;;12.27;1.60;;;15.50;99.90;;;;;;5032554;28;38870;-77
2023/11/01 13:17:20;;;;;;;4.97;1.35;;;15.50;99.90;;;;;;5038077;28;40047;-75
2023/11/01 13:19:46;;;;;;;7.43;1.48;;;15.50;99.90;;;;;;5037901;28;35964;-75
2023/11/01 13:22:13;;;;;;;8.27;1.27;;;15.40;99.90;;;;;;5057694;28;38761;-73
2023/11/01 13:24:39;;;;;;;6.93;1.40;;;15.40;99.90;;;;;;5040528;28;37442;-74
2023/11/01 13:27:09;;;;;;;6.07;1.35;;;15.30;99.90;;;;;;5038308;28;38191;-75
2023/11/01 13:29:37;;;;;;;7.78;1.38;;;15.30;99.90;;;;;;5035467;28;35977;-74
2023/11/01 13:32:04;;;;;;;7.63;1.65;;;15.20;99.90;;;;;;5037697;28;37303;-74
2023/11/01 13:34:31;;;;;;;6.65;1.40;;;15.20;99.90;;;;;;5038193;28;37616;-73
2023/11/01 13:36:57;;;;;;;10.82;1.60;;;15.20;99.90;;;;;;5032576;28;38267;-74
2023/11/01 13:39:24;;;;;;;7.05;1.55;;;15.10;99.90;;;;;;5033029;28;36428;-73
2023/11/01 13:41:51;;;;;;;8.10;1.65;;;15.10;99.90;;;;;;5035182;28;37521;-73
2023/11/01 13:44:18;;;;;;;6.78;1.67;;;15.10;99.90;;;;;;5052081;28;37303;-72
2023/11/01 13:46:44;;;;;;;7.53;1.60;;;15.10;99.90;;;;;;5061919;28;38898;-74
2023/11/01 13:49:10;;;;;;;12.18;1.70;;;15.10;99.90;;;;;;5036735;28;37486;-73
2023/11/01 13:51:37;;;;;;;3.45;1.23;;;15.10;99.90;;;;;;5030760;28;37793;-72
2023/11/01 13:54:04;;;;;;;6.00;1.33;;;15.10;99.90;;;;;;5037239;28;38694;-73
2023/11/01 13:56:30;;;;;;;5.63;1.55;;;15.00;99.90;;;;;;5036205;28;38171;-75
2023/11/01 13:58:56;;;;;;;9.75;1.73;;;15.10;99.90;;;;;;5036376;28;38342;-75
2023/11/01 14:01:22;;;;;;;7.18;1.70;;;15.10;99.90;;;;;;5036350;28;39604;-73
2023/11/01 14:03:52;;;;;;;8.25;1.40;;;15.20;99.90;;;;;;5047215;28;37590;-73